createdAt,value
2023-03-17T00:00:46.716Z,19165.56
2023-03-17T00:03:23.478Z,19210.28
2023-03-17T00:05:54.115Z,19238.72
2023-03-17T00:08:25.085Z,19187.91
2023-03-17T00:10:55.667Z,19183.84
2023-03-17T00:13:24.190Z,19157.44
2023-03-17T00:15:57.590Z,19204.19
2023-03-17T00:18:26.043Z,19159.47
2023-03-17T00:20:54.666Z,19179.78
2023-03-17T00:23:25.398Z,19181.81
2023-03-17T00:25:54.889Z,19175.72
2023-03-17T00:28:26.601Z,19210.28
2023-03-17T00:30:59.611Z,19196.06
2023-03-17T00:33:30.824Z,19187.91
2023-03-17T00:35:59.978Z,19187.91
2023-03-17T00:38:28.452Z,19206.22
2023-03-17T00:40:57.912Z,19208.25
2023-03-17T00:43:26.214Z,19177.75
2023-03-17T00:45:54.972Z,19226.53
2023-03-17T00:48:24.177Z,19198.09
2023-03-17T00:50:52.673Z,19206.22
2023-03-17T00:53:22.408Z,19226.53
2023-03-17T00:55:50.982Z,19187.91
2023-03-17T00:58:28.714Z,19206.22
2023-03-17T01:00:58.101Z,19202.16
2023-03-17T01:03:26.838Z,19206.22
2023-03-17T01:05:57.693Z,19240.75
2023-03-17T01:08:27.352Z,19242.78
2023-03-17T01:10:56.095Z,19259.03
2023-03-17T01:13:26.341Z,19200.13
2023-03-17T01:15:56.389Z,19269.22
2023-03-17T01:18:25.705Z,19297.66
2023-03-17T01:20:54.600Z,19299.69
2023-03-17T01:23:23.064Z,19275.31
2023-03-17T01:25:51.237Z,19244.81
2023-03-17T01:28:21.581Z,19267.16
2023-03-17T01:30:51.090Z,19269.22
2023-03-17T01:33:19.284Z,19273.28
2023-03-17T01:35:47.459Z,19248.88
2023-03-17T01:38:16.051Z,19271.25
2023-03-17T01:40:47.973Z,19265.13
2023-03-17T01:43:22.458Z,19293.59
2023-03-17T01:46:30.031Z,19293.59
2023-03-17T01:49:23.613Z,19295.63
2023-03-17T01:52:00.848Z,19283.44
2023-03-17T01:54:38.155Z,19332.19
2023-03-17T01:57:14.189Z,19309.84
2023-03-17T01:59:48.480Z,19366.75
2023-03-17T02:02:24.505Z,19330.16
2023-03-17T02:04:53.856Z,19313.91
2023-03-17T02:07:24.401Z,19303.75
2023-03-17T02:09:53.575Z,19336.25
2023-03-17T02:12:24.606Z,19358.63
2023-03-17T02:14:54.031Z,19350.50
2023-03-17T02:17:26.797Z,19342.34
2023-03-17T02:19:56.739Z,19317.97
2023-03-17T02:22:26.418Z,19326.09
2023-03-17T02:24:59.423Z,19326.09
2023-03-17T02:27:34.805Z,19309.84
2023-03-17T02:30:03.181Z,19289.53
2023-03-17T02:32:31.364Z,19291.56
2023-03-17T02:34:59.488Z,19293.59
2023-03-17T02:37:29.357Z,19287.50
2023-03-17T02:39:57.748Z,19281.41
2023-03-17T02:42:26.311Z,19297.66
2023-03-17T02:44:54.931Z,19301.72
2023-03-17T02:47:23.090Z,19346.44
2023-03-17T02:49:52.183Z,19301.72
2023-03-17T02:52:20.326Z,19289.53
2023-03-17T02:54:50.015Z,19317.97
2023-03-17T02:57:18.178Z,19313.91
2023-03-17T02:59:46.598Z,19338.28
2023-03-17T03:02:15.386Z,19317.97
2023-03-17T03:04:44.106Z,19313.91
2023-03-17T03:07:12.570Z,19317.97
2023-03-17T03:09:41.998Z,19305.78
2023-03-17T03:12:12.055Z,19317.97
2023-03-17T03:14:40.840Z,19334.22
2023-03-17T03:17:09.664Z,19301.72
2023-03-17T03:19:38.138Z,19344.41
2023-03-17T03:22:06.873Z,19364.72
2023-03-17T03:24:35.670Z,19356.59
2023-03-17T03:27:03.800Z,19265.13
2023-03-17T03:29:33.239Z,19315.94
2023-03-17T03:32:02.066Z,19287.50
2023-03-17T03:34:30.551Z,19277.34
2023-03-17T03:36:58.661Z,19311.88
2023-03-17T03:39:26.930Z,19313.91
2023-03-17T03:41:57.294Z,19293.59
2023-03-17T03:44:26.485Z,19273.28
2023-03-17T03:46:55.899Z,19277.34
2023-03-17T03:49:24.392Z,19309.84
2023-03-17T03:51:52.567Z,19309.84
2023-03-17T03:54:20.751Z,19309.84
2023-03-17T03:56:48.867Z,19309.84
2023-03-17T03:59:17.249Z,19340.31
2023-03-17T04:01:45.604Z,19344.41
2023-03-17T04:04:15.386Z,19322.03
2023-03-17T04:06:43.522Z,19342.34
2023-03-17T04:09:11.632Z,19328.13
2023-03-17T04:11:39.835Z,19348.47
2023-03-17T04:14:08.544Z,19344.41
2023-03-17T04:16:37.060Z,19348.47
2023-03-17T04:19:05.428Z,19358.63
2023-03-17T04:21:34.909Z,19338.28
2023-03-17T04:24:04.279Z,19344.41
2023-03-17T04:26:33.276Z,19342.34
2023-03-17T04:29:01.448Z,19352.53
2023-03-17T04:31:29.633Z,19317.97
2023-03-17T04:33:57.782Z,19326.09
2023-03-17T04:36:26.004Z,19352.53
2023-03-17T04:38:55.846Z,19364.72
2023-03-17T04:41:24.013Z,19344.41
2023-03-17T04:43:52.117Z,19338.28
2023-03-17T04:46:20.460Z,19356.59
2023-03-17T04:48:48.595Z,19383.00
2023-03-17T04:51:17.054Z,19311.88
2023-03-17T04:53:45.565Z,19307.81
2023-03-17T04:56:15.529Z,19334.22
2023-03-17T04:58:43.901Z,19328.13
2023-03-17T05:01:12.185Z,19313.91
2023-03-17T05:03:40.601Z,19334.22
2023-03-17T05:06:09.116Z,19334.22
2023-03-17T05:08:37.309Z,19320.00
2023-03-17T05:11:06.215Z,19328.13
2023-03-17T05:13:35.818Z,19324.06
2023-03-17T05:16:04.277Z,19301.72
2023-03-17T05:18:32.401Z,19324.06
2023-03-17T05:21:00.949Z,19303.75
2023-03-17T05:23:29.615Z,19277.34
2023-03-17T05:25:57.797Z,19317.97
2023-03-17T05:28:26.711Z,19320.00
2023-03-17T05:30:56.536Z,19301.72
2023-03-17T05:33:25.089Z,19330.16
2023-03-17T05:35:53.607Z,19328.13
2023-03-17T05:38:21.887Z,19334.22
2023-03-17T05:40:52.640Z,19334.22
2023-03-17T05:43:21.032Z,19295.63
2023-03-17T05:45:50.543Z,19338.28
2023-03-17T05:48:20.060Z,19342.34
2023-03-17T05:50:48.278Z,19307.81
2023-03-17T05:53:17.614Z,19317.97
2023-03-17T05:55:45.856Z,19336.25
2023-03-17T05:58:15.668Z,19350.50
2023-03-17T06:00:44.669Z,19336.25
2023-03-17T06:03:12.841Z,19320.00
2023-03-17T06:05:42.411Z,19354.56
2023-03-17T06:08:10.561Z,19344.41
2023-03-17T06:10:38.698Z,19352.53
2023-03-17T06:13:06.838Z,19393.16
2023-03-17T06:15:36.293Z,19372.84
2023-03-17T06:18:06.132Z,19374.88
2023-03-17T06:20:34.722Z,19376.91
2023-03-17T06:23:05.813Z,19387.06
2023-03-17T06:25:35.067Z,19372.84
2023-03-17T06:28:04.151Z,19376.91
2023-03-17T06:30:33.744Z,19395.19
2023-03-17T06:33:02.781Z,19385.03
2023-03-17T06:35:32.111Z,19423.66
2023-03-17T06:38:01.274Z,19385.03
2023-03-17T06:40:32.017Z,19423.66
2023-03-17T06:43:01.123Z,19431.78
2023-03-17T06:45:29.624Z,19456.16
2023-03-17T06:47:58.017Z,19385.03
2023-03-17T06:50:26.990Z,19441.94
2023-03-17T06:52:55.184Z,19417.56
2023-03-17T06:55:23.304Z,19429.75
2023-03-17T06:57:52.811Z,19460.22
2023-03-17T07:00:22.978Z,19448.03
2023-03-17T07:02:51.127Z,19439.91
2023-03-17T07:05:19.612Z,19468.34
2023-03-17T07:07:47.780Z,19435.84
2023-03-17T07:10:17.206Z,19454.13
2023-03-17T07:12:45.891Z,19458.19
2023-03-17T07:15:18.798Z,19446.00
2023-03-17T07:17:47.927Z,19462.25
2023-03-17T07:20:16.133Z,19464.28
2023-03-17T07:22:44.319Z,19446.00
2023-03-17T07:25:12.659Z,19511.03
2023-03-17T07:27:40.858Z,19513.06
2023-03-17T07:30:10.982Z,19531.34
2023-03-17T07:32:41.836Z,19519.16
2023-03-17T07:35:10.734Z,19509.00
2023-03-17T07:37:38.998Z,19529.31
2023-03-17T07:40:10.180Z,19545.56
2023-03-17T07:42:38.710Z,19557.78
2023-03-17T07:45:08.559Z,19574.03
2023-03-17T07:47:36.711Z,19567.94
2023-03-17T07:50:07.688Z,19630.94
2023-03-17T07:52:35.867Z,19645.16
2023-03-17T07:55:04.399Z,19632.97
2023-03-17T07:57:32.641Z,19626.88
2023-03-17T08:00:01.165Z,19614.66
2023-03-17T08:02:29.797Z,19655.31
2023-03-17T08:04:57.930Z,19710.19
2023-03-17T08:07:27.758Z,19720.34
2023-03-17T08:09:55.997Z,19712.22
2023-03-17T08:12:25.546Z,19736.59
2023-03-17T08:14:53.737Z,19773.19
2023-03-17T08:17:26.875Z,19813.84
2023-03-17T08:19:55.154Z,19811.81
2023-03-17T08:22:24.754Z,19785.38
2023-03-17T08:24:54.446Z,19799.63
2023-03-17T08:27:23.076Z,19832.13
2023-03-17T08:29:51.978Z,19860.59
2023-03-17T08:32:20.694Z,19891.06
2023-03-17T08:34:49.370Z,19911.41
2023-03-17T08:37:17.554Z,19935.78
2023-03-17T08:39:45.859Z,19952.03
2023-03-17T08:42:15.574Z,19947.97
2023-03-17T08:44:44.316Z,19982.53
2023-03-17T08:47:12.500Z,19984.56
2023-03-17T08:49:41.046Z,19974.41
2023-03-17T08:52:09.965Z,19980.50
2023-03-17T08:54:39.485Z,19978.47
2023-03-17T08:57:07.780Z,19996.75
2023-03-17T08:59:37.307Z,20000.81
2023-03-17T09:02:05.686Z,20039.44
2023-03-17T09:04:33.978Z,20082.13
2023-03-17T09:07:04.220Z,20086.19
2023-03-17T09:09:34.498Z,20049.59
2023-03-17T09:12:04.342Z,20027.25
2023-03-17T09:14:42.639Z,20074.00
2023-03-17T09:17:14.410Z,20071.97
2023-03-17T09:19:43.359Z,20078.06
2023-03-17T09:22:15.235Z,20071.97
2023-03-17T09:24:43.457Z,20122.78
2023-03-17T09:27:12.766Z,20102.44
2023-03-17T09:29:41.186Z,20078.06
2023-03-17T09:32:10.292Z,20155.28
2023-03-17T09:34:39.787Z,20143.09
2023-03-17T09:37:09.736Z,20189.84
2023-03-17T09:39:38.618Z,20195.94
2023-03-17T09:42:24.287Z,20214.22
2023-03-17T09:45:17.605Z,20206.09
2023-03-17T09:48:17.741Z,20208.13
2023-03-17T09:50:56.719Z,20204.06
2023-03-17T09:53:34.036Z,20252.84
2023-03-17T09:56:09.682Z,20295.53
2023-03-17T09:58:42.464Z,20311.78
2023-03-17T10:01:12.733Z,20283.34
2023-03-17T10:03:41.073Z,20309.75
2023-03-17T10:06:40.984Z,20332.13
2023-03-17T10:09:26.179Z,20350.41
2023-03-17T10:12:07.410Z,20352.44
2023-03-17T10:14:59.544Z,20370.75
2023-03-17T10:17:33.068Z,20395.13
2023-03-17T10:20:11.343Z,20445.94
2023-03-17T10:22:48.871Z,20439.84
2023-03-17T10:25:21.407Z,20431.72
2023-03-17T10:27:59.694Z,20464.25
2023-03-17T10:30:28.974Z,20494.75
2023-03-17T10:33:01.864Z,20492.72
2023-03-17T10:35:35.859Z,20464.25
2023-03-17T10:38:17.724Z,20488.63
2023-03-17T10:40:58.029Z,20478.47
2023-03-17T10:43:32.013Z,20508.97
2023-03-17T10:46:03.422Z,20519.13
2023-03-17T10:48:37.147Z,20531.31
2023-03-17T10:51:11.051Z,20594.34
2023-03-17T10:53:43.926Z,20561.81
2023-03-17T10:56:25.017Z,20612.63
2023-03-17T10:58:56.865Z,20645.16
2023-03-17T11:01:35.078Z,20620.78
2023-03-17T11:04:06.399Z,20637.03
2023-03-17T11:06:42.731Z,20580.13
2023-03-17T11:09:19.682Z,20635.00
2023-03-17T11:11:51.322Z,20610.59
2023-03-17T11:14:20.850Z,20645.16
2023-03-17T11:16:55.771Z,20641.09
2023-03-17T11:19:35.689Z,20655.31
2023-03-17T11:22:12.509Z,20663.47
2023-03-17T11:24:58.066Z,20647.19
2023-03-17T11:27:33.762Z,20679.72
2023-03-17T11:30:25.984Z,20618.72
2023-03-17T11:33:01.881Z,20600.44
2023-03-17T11:35:51.429Z,20632.97
2023-03-17T11:38:28.098Z,20635.00
2023-03-17T11:41:18.693Z,20622.81
2023-03-17T11:44:13.523Z,20632.97
2023-03-17T11:46:48.914Z,20596.38
2023-03-17T11:49:22.818Z,20618.72
2023-03-17T11:52:06.176Z,20645.16
2023-03-17T11:54:55.368Z,20653.28
2023-03-17T11:57:32.837Z,20702.09
2023-03-17T12:00:07.182Z,20657.34
2023-03-17T12:02:44.634Z,20706.16
2023-03-17T12:05:20.124Z,20695.97
2023-03-17T12:07:54.769Z,20663.47
2023-03-17T12:10:28.569Z,20659.38
2023-03-17T12:13:04.852Z,20624.84
2023-03-17T12:15:40.605Z,20600.44
2023-03-17T12:18:19.086Z,20643.13
2023-03-17T12:20:56.678Z,20637.03
2023-03-17T12:23:39.605Z,20653.28
2023-03-17T12:26:14.436Z,20683.78
2023-03-17T12:28:55.623Z,20667.53
2023-03-17T12:31:31.568Z,20698.00
2023-03-17T12:34:08.416Z,20712.25
2023-03-17T12:36:38.222Z,20742.75
2023-03-17T12:39:12.734Z,20763.06
2023-03-17T12:42:28.014Z,20803.72
2023-03-17T12:45:30.956Z,20807.78
2023-03-17T12:48:35.163Z,20828.13
2023-03-17T12:51:38.702Z,20856.56
2023-03-17T12:54:15.297Z,20838.28
2023-03-17T12:56:49.293Z,20858.59
2023-03-17T12:59:22.513Z,20830.16
2023-03-17T13:01:58.910Z,20844.38
2023-03-17T13:04:32.390Z,20826.09
2023-03-17T13:07:12.398Z,20846.41
2023-03-17T13:09:48.374Z,20854.53
2023-03-17T13:13:06.292Z,20901.31
2023-03-17T13:15:56.885Z,20897.25
2023-03-17T13:19:08.758Z,20866.75
2023-03-17T13:21:38.666Z,20915.53
2023-03-17T13:24:48.533Z,20846.41
2023-03-17T13:27:45.984Z,20899.28
2023-03-17T13:31:10.044Z,20856.56
2023-03-17T13:33:46.455Z,20907.41
2023-03-17T13:36:42.704Z,20941.97
2023-03-17T13:39:42.996Z,20895.19
2023-03-17T13:42:54.040Z,20941.97
2023-03-17T13:45:38.367Z,20941.97
2023-03-17T13:48:34.062Z,20925.69
2023-03-17T13:51:16.415Z,20935.88
2023-03-17T13:53:53.898Z,20891.13
2023-03-17T13:56:30.357Z,20929.75
2023-03-17T13:59:14.952Z,20874.88
2023-03-17T14:01:54.460Z,20907.41
2023-03-17T14:04:29.052Z,20872.84
2023-03-17T14:07:06.858Z,20850.47
2023-03-17T14:09:39.556Z,20852.50
2023-03-17T14:12:20.668Z,20803.72
2023-03-17T14:14:54.176Z,20826.09
2023-03-17T14:17:27.055Z,20838.28
2023-03-17T14:20:06.320Z,20840.31
2023-03-17T14:22:41.182Z,20828.13
2023-03-17T14:25:18.252Z,20840.31
2023-03-17T14:27:49.958Z,20775.25
2023-03-17T14:30:23.058Z,20765.09
2023-03-17T14:33:00.610Z,20761.03
2023-03-17T14:35:32.925Z,20805.75
2023-03-17T14:38:02.775Z,20752.91
2023-03-17T14:40:36.812Z,20769.16
2023-03-17T14:43:05.489Z,20738.66
2023-03-17T14:45:51.836Z,20795.59
2023-03-17T14:48:27.875Z,20740.69
2023-03-17T14:51:04.817Z,20765.09
2023-03-17T14:53:34.226Z,20756.97
2023-03-17T14:56:04.262Z,20773.22
2023-03-17T14:58:41.443Z,20765.09
2023-03-17T15:01:17.541Z,20714.28
2023-03-17T15:03:57.289Z,20728.50
2023-03-17T15:06:29.934Z,20712.25
2023-03-17T15:09:01.189Z,20689.88
2023-03-17T15:11:39.522Z,20675.66
2023-03-17T15:14:21.203Z,20675.66
2023-03-17T15:16:52.853Z,20657.34
2023-03-17T15:19:27.685Z,20665.50
2023-03-17T15:22:00.209Z,20639.06
2023-03-17T15:24:40.435Z,20592.31
2023-03-17T15:27:17.754Z,20637.03
2023-03-17T15:29:48.177Z,20600.44
2023-03-17T15:32:20.443Z,20612.63
2023-03-17T15:34:49.346Z,20639.06
2023-03-17T15:37:20.483Z,20582.16
2023-03-17T15:39:50.195Z,20580.13
2023-03-17T15:42:24.685Z,20586.22
2023-03-17T15:44:53.110Z,20567.91
2023-03-17T15:47:23.796Z,20586.22
2023-03-17T15:49:52.532Z,20545.56
2023-03-17T15:52:24.832Z,20547.59
2023-03-17T15:54:54.790Z,20508.97
2023-03-17T15:57:24.666Z,20525.22
2023-03-17T15:59:52.892Z,20502.88
2023-03-17T16:02:38.973Z,20533.34
2023-03-17T16:05:18.532Z,20494.75
2023-03-17T16:07:47.289Z,20521.16
2023-03-17T16:10:22.018Z,20519.13
2023-03-17T16:12:52.537Z,20472.38
2023-03-17T16:15:24.064Z,20472.38
2023-03-17T16:17:55.185Z,20435.78
2023-03-17T16:20:27.051Z,20452.06
2023-03-17T16:22:59.424Z,20433.75
2023-03-17T16:25:30.364Z,20435.78
2023-03-17T16:28:02.924Z,20384.97
2023-03-17T16:30:34.498Z,20393.09
2023-03-17T16:33:10.393Z,20338.22
2023-03-17T16:35:38.551Z,20342.28
2023-03-17T16:38:10.825Z,20354.47
2023-03-17T16:40:39.986Z,20307.72
2023-03-17T16:43:25.446Z,20289.44
2023-03-17T16:45:57.085Z,20309.75
2023-03-17T16:48:26.380Z,20309.75
2023-03-17T16:50:55.778Z,20309.75
2023-03-17T16:53:24.838Z,20307.72
2023-03-17T16:55:55.007Z,20273.19
2023-03-17T16:58:26.964Z,20277.25
2023-03-17T17:01:01.307Z,20256.91
2023-03-17T17:03:31.733Z,20200.00
2023-03-17T17:05:59.851Z,20250.81
2023-03-17T17:08:28.124Z,20240.66
2023-03-17T17:10:57.255Z,20238.63
2023-03-17T17:13:26.766Z,20200.00
2023-03-17T17:15:56.179Z,20208.13
2023-03-17T17:18:25.707Z,20208.13
2023-03-17T17:20:56.663Z,20163.41
2023-03-17T17:23:28.154Z,20151.22
2023-03-17T17:25:56.620Z,20159.34
2023-03-17T17:28:27.118Z,20204.06
2023-03-17T17:30:55.628Z,20157.31
2023-03-17T17:33:24.348Z,20173.59
2023-03-17T17:35:54.059Z,20130.91
2023-03-17T17:38:26.711Z,20143.09
2023-03-17T17:40:57.290Z,20134.97
2023-03-17T17:43:27.087Z,20128.88
2023-03-17T17:45:55.907Z,20155.28
2023-03-17T17:48:27.529Z,20143.09
2023-03-17T17:50:57.530Z,20151.22
2023-03-17T17:53:26.371Z,20126.84
2023-03-17T17:55:54.508Z,20120.75
2023-03-17T17:58:25.483Z,20088.22
2023-03-17T18:00:57.136Z,20122.78
2023-03-17T18:03:26.057Z,20130.91
2023-03-17T18:05:56.087Z,20145.13
2023-03-17T18:08:25.337Z,20159.34
2023-03-17T18:10:55.619Z,20145.13
2023-03-17T18:13:23.955Z,20139.03
2023-03-17T18:15:52.268Z,20102.44
2023-03-17T18:18:21.772Z,20128.88
2023-03-17T18:20:50.260Z,20102.44
2023-03-17T18:23:20.125Z,20118.69
2023-03-17T18:25:48.305Z,20067.88
2023-03-17T18:28:17.164Z,20071.97
2023-03-17T18:30:46.856Z,20086.19
2023-03-17T18:33:19.639Z,20019.13
2023-03-17T18:35:52.530Z,20076.03
2023-03-17T18:38:20.723Z,20045.53
2023-03-17T18:40:48.956Z,20013.00
2023-03-17T18:43:17.105Z,20051.63
2023-03-17T18:45:46.105Z,20059.75
2023-03-17T18:48:14.343Z,20039.44
2023-03-17T18:50:42.577Z,20017.09
2023-03-17T18:53:12.149Z,20045.53
2023-03-17T18:55:41.402Z,20008.94
2023-03-17T18:58:09.580Z,19984.56
2023-03-17T19:00:37.764Z,19992.69
2023-03-17T19:03:06.157Z,20008.94
2023-03-17T19:05:39.402Z,20006.91
2023-03-17T19:08:08.176Z,19994.72
2023-03-17T19:10:37.685Z,20004.88
2023-03-17T19:13:06.155Z,19990.66
2023-03-17T19:15:34.454Z,20006.91
2023-03-17T19:18:02.728Z,20013.00
2023-03-17T19:20:31.488Z,20031.31
2023-03-17T19:22:59.802Z,20027.25
2023-03-17T19:25:28.249Z,20010.97
2023-03-17T19:27:59.043Z,19986.59
2023-03-17T19:30:27.494Z,19978.47
2023-03-17T19:32:55.719Z,20033.34
2023-03-17T19:35:24.166Z,19990.66
2023-03-17T19:37:52.301Z,19984.56
2023-03-17T19:40:20.456Z,19976.44
2023-03-17T19:42:48.853Z,19992.69
2023-03-17T19:45:18.517Z,20045.53
2023-03-17T19:47:46.962Z,20078.06
2023-03-17T19:50:16.119Z,20078.06
2023-03-17T19:52:45.881Z,20041.47
2023-03-17T19:55:13.964Z,20067.88
2023-03-17T19:57:42.268Z,20002.84
2023-03-17T20:00:12.893Z,20010.97
2023-03-17T20:02:42.383Z,20013.00
2023-03-17T20:05:11.371Z,20010.97
2023-03-17T20:07:39.650Z,20000.81
2023-03-17T20:10:10.004Z,20025.22
2023-03-17T20:12:39.298Z,20015.03
2023-03-17T20:15:12.324Z,19939.84
2023-03-17T20:17:41.977Z,19994.72
2023-03-17T20:20:12.508Z,19960.16
2023-03-17T20:22:43.483Z,19962.19
2023-03-17T20:25:12.370Z,19990.66
2023-03-17T20:27:41.588Z,20013.00
2023-03-17T20:30:12.233Z,19994.72
2023-03-17T20:32:41.955Z,20037.41
2023-03-17T20:35:11.002Z,20008.94
2023-03-17T20:37:39.492Z,20002.84
2023-03-17T20:40:10.602Z,20015.03
2023-03-17T20:42:38.771Z,20017.09
2023-03-17T20:45:08.890Z,20029.28
2023-03-17T20:47:37.609Z,19988.63
2023-03-17T20:50:08.816Z,19998.78
2023-03-17T20:52:38.093Z,19958.13
2023-03-17T20:55:08.316Z,19998.78
2023-03-17T20:57:37.903Z,20004.88
2023-03-17T21:00:08.138Z,20055.69
2023-03-17T21:02:36.292Z,20037.41
2023-03-17T21:05:07.369Z,20053.66
2023-03-17T21:07:35.495Z,20045.53
2023-03-17T21:10:03.682Z,20029.28
2023-03-17T21:12:31.842Z,19960.16
2023-03-17T21:15:00.657Z,20013.00
2023-03-17T21:17:28.960Z,19952.03
2023-03-17T21:19:57.117Z,19952.03
2023-03-17T21:22:26.813Z,19992.69
2023-03-17T21:24:55.393Z,19978.47
2023-03-17T21:27:23.624Z,19994.72
2023-03-17T21:29:52.185Z,19986.59
2023-03-17T21:32:20.324Z,20023.19
2023-03-17T21:34:48.475Z,19998.78
2023-03-17T21:37:18.276Z,20033.34
2023-03-17T21:39:47.811Z,20035.38
2023-03-17T21:42:15.903Z,19994.72
2023-03-17T21:44:45.699Z,20000.81
2023-03-17T21:47:13.883Z,19962.19
2023-03-17T21:49:42.336Z,19966.28
2023-03-17T21:52:10.710Z,19994.72
2023-03-17T21:54:38.961Z,19966.28
2023-03-17T21:57:08.664Z,19986.59
2023-03-17T21:59:36.920Z,19958.13
2023-03-17T22:02:05.070Z,19947.97
2023-03-17T22:04:33.297Z,19960.16
2023-03-17T22:07:04.293Z,19958.13
2023-03-17T22:09:32.592Z,19992.69
2023-03-17T22:12:00.776Z,19954.06
2023-03-17T22:14:30.471Z,19943.91
2023-03-17T22:16:58.774Z,19943.91
2023-03-17T22:19:27.170Z,19952.03
2023-03-17T22:21:56.495Z,19962.19
2023-03-17T22:24:25.475Z,19929.69
2023-03-17T22:26:53.997Z,19929.69
2023-03-17T22:29:22.177Z,19943.91
2023-03-17T22:31:52.311Z,19919.53
2023-03-17T22:34:20.469Z,19927.66
2023-03-17T22:36:48.558Z,19945.94
2023-03-17T22:39:17.091Z,19945.94
2023-03-17T22:41:45.682Z,19939.84
2023-03-17T22:44:14.087Z,19956.09
2023-03-17T22:46:42.364Z,19950.00
2023-03-17T22:49:12.768Z,19913.44
2023-03-17T22:51:41.908Z,19927.66
2023-03-17T22:54:11.328Z,19901.22
2023-03-17T22:56:39.809Z,19895.13
2023-03-17T22:59:08.062Z,19866.69
2023-03-17T23:01:36.313Z,19925.63
2023-03-17T23:04:04.509Z,19921.56
2023-03-17T23:06:35.161Z,19923.59
2023-03-17T23:09:03.394Z,19929.69
2023-03-17T23:11:31.834Z,19903.25
2023-03-17T23:13:59.982Z,19923.59
2023-03-17T23:16:28.162Z,19909.34
2023-03-17T23:18:56.822Z,19850.41
2023-03-17T23:21:36.262Z,19854.50
2023-03-17T23:24:07.775Z,19864.66
2023-03-17T23:26:37.756Z,19832.13
2023-03-17T23:29:08.505Z,19834.16
2023-03-17T23:31:38.209Z,19866.69
2023-03-17T23:34:07.538Z,19907.31
2023-03-17T23:36:40.012Z,19899.19
2023-03-17T23:39:09.756Z,19891.06
2023-03-17T23:41:38.243Z,19909.34
2023-03-17T23:44:06.830Z,19862.63
2023-03-17T23:46:35.035Z,19860.59
2023-03-17T23:49:04.282Z,19858.56
2023-03-17T23:51:33.356Z,19846.34
2023-03-17T23:54:02.874Z,19848.38
2023-03-17T23:56:32.142Z,19876.84
2023-03-17T23:59:00.389Z,19852.44
